Time;durP1;ratioP1;P1;durP2;ratioP2;P2;SDS_P1;SDS_P2;PMS_P1;PMS_P2;Temp;Humidity;BMP_temperature;BMP_pressure;BME280_temperature;BME280_humidity;BME280_pressure;Samples;Min_cycle;Max_cycle;Signal;HPM_P1;HPM_P2
2023/01/20 00:03:21;;;;;;;81.60;51.80;;;;;;;0.69;87.04;99655.09;181249;1263;43121;-60
2023/01/20 00:07:24;;;;;;;72.00;37.40;;;;;;;0.63;87.61;99660.81;181292;1263;43021;-57
2023/01/20 00:11:28;;;;;;;65.70;39.50;;;;;;;0.34;88.56;99658.92;181315;1263;43894;-60
2023/01/20 00:15:31;;;;;;;62.10;39.90;;;;;;;0.22;88.24;99656.54;181112;1263;58419;-59
2023/01/20 00:19:34;;;;;;;55.20;34.90;;;;;;;0.21;88.63;99653.30;181226;1264;43868;-60
2023/01/20 00:23:38;;;;;;;50.10;34.40;;;;;;;0.07;89.96;99655.16;181308;1264;43010;-63
2023/01/20 00:27:42;;;;;;;49.50;31.70;;;;;;;-0.08;91.34;99664.25;181220;1263;43895;-61
2023/01/20 00:31:45;;;;;;;54.20;31.40;;;;;;;-0.21;92.77;99667.83;181149;1264;43419;-61
2023/01/20 00:35:48;;;;;;;67.30;34.40;;;;;;;-0.26;93.61;99665.29;181138;1264;59312;-58
2023/01/20 00:39:50;;;;;;;59.20;37.20;;;;;;;-0.28;93.55;99671.11;181269;1263;43405;-58
2023/01/20 00:43:54;;;;;;;56.60;32.40;;;;;;;-0.32;94.25;99670.43;181230;1263;43072;-61
2023/01/20 00:47:56;;;;;;;65.00;39.80;;;;;;;-0.28;93.53;99677.02;181225;1263;43158;-62
2023/01/20 00:52:00;;;;;;;90.10;49.20;;;;;;;-0.21;92.81;99683.34;181178;1263;43951;-62
2023/01/20 00:56:04;;;;;;;60.10;36.10;;;;;;;-0.28;93.78;99685.20;181108;1263;219367;-64
2023/01/20 01:00:07;;;;;;;59.40;33.90;;;;;;;-0.41;94.75;99693.66;181259;1263;43442;-62
2023/01/20 01:04:10;;;;;;;60.00;35.20;;;;;;;-0.50;95.46;99694.95;181169;1263;43079;-61
2023/01/20 01:08:17;;;;;;;64.60;39.10;;;;;;;-0.52;95.80;99694.34;181229;1264;43682;-58
2023/01/20 01:12:20;;;;;;;64.10;35.30;;;;;;;-0.50;95.87;99693.35;181270;1263;43029;-59
2023/01/20 01:16:23;;;;;;;55.50;33.10;;;;;;;-0.49;95.62;99694.02;181211;1263;58318;-61
2023/01/20 01:20:27;;;;;;;66.80;43.10;;;;;;;-0.37;94.77;99704.80;181278;1263;43257;-61
2023/01/20 01:24:30;;;;;;;60.80;36.20;;;;;;;-0.40;94.90;99707.70;181240;1263;43240;-59
2023/01/20 01:28:33;;;;;;;52.50;33.90;;;;;;;-0.29;94.00;99713.50;181263;1263;43711;-62
2023/01/20 01:32:36;;;;;;;72.60;34.00;;;;;;;-0.18;93.55;99715.26;181246;1262;43022;-62
2023/01/20 01:36:38;;;;;;;60.90;33.90;;;;;;;-0.06;92.88;99714.86;181312;1263;58223;-59
2023/01/20 01:40:47;;;;;;;111.50;70.80;;;;;;;0.03;92.37;99710.99;181299;1263;43825;-62
2023/01/20 01:45:10;;;;;;;88.50;51.50;;;;;;;0.05;91.95;99707.59;181174;1264;43712;-59
2023/01/20 01:54:05;;;;;;;60.50;38.50;;;;;;;-0.02;92.38;99722.89;181204;1263;43129;-64
2023/01/20 01:58:11;;;;;;;61.70;37.30;;;;;;;-0.06;92.53;99724.98;181190;1263;59146;-63
2023/01/20 02:02:14;;;;;;;51.40;28.50;;;;;;;-0.13;92.48;99725.67;181209;1264;43263;-61
2023/01/20 02:06:23;;;;;;;52.80;32.10;;;;;;;-0.15;92.40;99734.80;181199;1263;43046;-62
2023/01/20 02:10:26;;;;;;;45.00;27.50;;;;;;;-0.11;92.12;99738.83;181165;1263;43422;-60
2023/01/20 02:15:31;;;;;;;53.20;28.10;;;;;;;-0.05;91.75;99738.36;181168;1264;44060;-61
2023/01/20 02:20:14;;;;;;;51.10;31.60;;;;;;;0.07;91.58;99738.84;181182;1263;59317;-60
2023/01/20 02:24:38;;;;;;;41.00;25.60;;;;;;;0.30;91.69;99740.39;181131;1264;43055;-64
2023/01/20 02:29:03;;;;;;;32.20;21.60;;;;;;;0.37;88.99;99741.63;181243;1263;43047;-63
2023/01/20 02:33:13;;;;;;;43.40;20.10;;;;;;;0.36;88.45;99743.44;181232;1263;44259;-60
2023/01/20 02:37:28;;;;;;;29.00;16.70;;;;;;;0.38;88.73;99746.30;181228;1262;43112;-65
2023/01/20 02:41:55;;;;;;;37.10;19.80;;;;;;;0.53;89.13;99745.23;181159;1263;58454;-61
2023/01/20 02:45:57;;;;;;;29.30;18.30;;;;;;;0.69;88.34;99738.84;181278;1263;43123;-62
2023/01/20 02:50:06;;;;;;;23.70;15.90;;;;;;;0.78;87.06;99747.84;181309;1263;43076;-64
2023/01/20 02:54:12;;;;;;;27.20;17.60;;;;;;;0.81;86.16;99750.14;181278;1263;43799;-61
2023/01/20 02:58:43;;;;;;;34.60;20.70;;;;;;;0.82;85.49;99749.08;181195;1263;43457;-62
2023/01/20 03:02:50;;;;;;;28.60;21.90;;;;;;;0.70;85.66;99759.59;180368;1271;58066;-62
2023/01/20 03:06:56;;;;;;;38.70;22.40;;;;;;;0.77;86.59;99760.27;180247;1273;43435;-63
2023/01/20 03:11:04;;;;;;;31.90;21.10;;;;;;;0.89;86.16;99764.10;180241;1271;42957;-59
2023/01/20 03:15:09;;;;;;;37.70;23.30;;;;;;;0.93;85.33;99763.84;180274;1273;43120;-62
2023/01/20 03:19:12;;;;;;;49.50;30.90;;;;;;;0.93;85.26;99763.69;180349;1273;43156;-59
2023/01/20 03:23:15;;;;;;;50.10;27.40;;;;;;;0.98;85.61;99765.90;180617;1273;58018;-62
2023/01/20 03:27:25;;;;;;;39.90;24.90;;;;;;;1.06;85.46;99767.29;180635;1271;43073;-61
2023/01/20 03:31:39;;;;;;;36.90;25.30;;;;;;;1.10;85.26;99771.44;180292;1272;43381;-62
2023/01/20 03:35:43;;;;;;;46.80;28.00;;;;;;;1.12;84.98;99771.98;180202;1273;43180;-60
2023/01/20 03:39:48;;;;;;;46.60;24.20;;;;;;;1.16;84.89;99775.30;180467;1264;43770;-61
2023/01/20 03:44:14;;;;;;;36.20;22.90;;;;;;;1.19;84.69;99777.92;181181;1264;58193;-60
2023/01/20 03:48:37;;;;;;;35.60;21.90;;;;;;;1.16;84.25;99782.61;181163;1264;43744;-61
2023/01/20 03:53:19;;;;;;;29.10;17.50;;;;;;;1.04;84.99;99784.48;181100;1264;43930;-62
2023/01/20 04:00:51;;;;;;;29.20;19.50;;;;;;;1.04;86.67;99797.02;172225;1295;567359;-82
2023/01/20 04:04:56;;;;;;;47.50;28.00;;;;;;;1.14;87.09;99803.20;176668;1265;58592;-81
2023/01/20 04:09:08;;;;;;;49.00;25.90;;;;;;;1.14;87.02;99815.05;175875;1266;46418;-80
2023/01/20 04:13:11;;;;;;;39.80;23.50;;;;;;;1.07;87.30;99821.34;176320;1263;233773;-81
2023/01/20 04:17:14;;;;;;;34.40;23.70;;;;;;;1.06;88.00;99823.81;177007;1263;46095;-81
2023/01/20 04:21:32;;;;;;;34.60;22.60;;;;;;;1.10;88.69;99832.70;176916;1263;45957;-82
2023/01/20 04:25:36;;;;;;;41.30;23.20;;;;;;;1.27;89.60;99835.87;177921;1264;59583;-81
2023/01/20 04:29:40;;;;;;;24.70;16.10;;;;;;;1.45;88.67;99841.82;177840;1263;44161;-81
2023/01/20 04:33:43;;;;;;;25.20;16.40;;;;;;;1.57;87.45;99845.41;176314;1266;45932;-81
2023/01/20 04:37:46;;;;;;;27.50;17.40;;;;;;;1.62;86.63;99849.02;179111;1254;47610;-82
2023/01/20 04:41:49;;;;;;;27.50;19.10;;;;;;;1.60;86.97;99851.52;179516;1254;46011;-81
2023/01/20 04:45:51;;;;;;;34.90;19.40;;;;;;;1.63;87.28;99857.35;180831;1253;57901;-82
2023/01/20 04:49:54;;;;;;;31.80;18.50;;;;;;;1.68;87.83;99860.92;180298;1251;45926;-82
2023/01/20 04:53:58;;;;;;;28.00;16.60;;;;;;;1.78;88.11;99863.55;180125;1253;44152;-81
2023/01/20 04:58:01;;;;;;;25.90;15.30;;;;;;;1.86;87.43;99859.45;176898;1253;46085;-81
2023/01/20 05:02:04;;;;;;;31.30;17.90;;;;;;;1.89;86.44;99858.98;176990;1255;45975;-81
2023/01/20 05:06:09;;;;;;;27.20;17.40;;;;;;;1.94;85.43;99861.31;176945;1255;57889;-81
2023/01/20 05:10:12;;;;;;;27.70;16.60;;;;;;;1.92;83.86;99866.52;177369;1254;46120;-80
2023/01/20 05:14:16;;;;;;;20.00;13.80;;;;;;;1.87;83.86;99874.83;176573;1256;46082;-81
2023/01/20 05:18:19;;;;;;;26.90;17.20;;;;;;;1.64;83.73;99879.47;178586;1254;45963;-82
2023/01/20 05:22:23;;;;;;;25.20;18.10;;;;;;;1.49;84.91;99881.45;176842;1254;46734;-81
2023/01/20 05:26:26;;;;;;;25.20;17.40;;;;;;;1.46;85.58;99884.41;177501;1254;59608;-81
2023/01/20 05:30:29;;;;;;;23.60;16.00;;;;;;;1.50;86.28;99898.19;177895;1254;46077;-81
2023/01/20 05:34:32;;;;;;;28.50;15.30;;;;;;;1.59;85.83;99906.67;177212;1254;46102;-82
2023/01/20 05:38:36;;;;;;;26.00;14.30;;;;;;;1.63;86.27;99910.09;177631;1255;46264;-81
2023/01/20 05:42:39;;;;;;;33.70;17.30;;;;;;;1.69;86.43;99913.30;177755;1254;46095;-80
2023/01/20 05:46:42;;;;;;;18.80;15.50;;;;;;;1.70;86.22;99916.38;176933;1253;59599;-81
2023/01/20 05:50:45;;;;;;;29.20;18.50;;;;;;;1.74;86.95;99915.86;177306;1253;46162;-81
2023/01/20 05:54:48;;;;;;;25.90;16.60;;;;;;;1.80;87.22;99916.76;178275;1256;45967;-81
2023/01/20 05:58:55;;;;;;;26.00;17.50;;;;;;;1.85;87.14;99925.06;179053;1253;46214;-81
2023/01/20 06:02:58;;;;;;;22.50;17.20;;;;;;;1.94;86.93;99930.56;179020;1257;45958;-81
2023/01/20 06:07:01;;;;;;;20.40;14.70;;;;;;;2.00;86.75;99937.80;177532;1254;58285;-81
2023/01/20 06:11:04;;;;;;;24.10;15.80;;;;;;;1.97;86.78;99936.73;176966;1253;46088;-81
2023/01/20 06:15:08;;;;;;;37.10;16.60;;;;;;;1.78;87.01;99940.64;176846;1254;46111;-81
2023/01/20 06:19:11;;;;;;;23.00;17.30;;;;;;;1.67;87.65;99948.04;177293;1255;46098;-82
2023/01/20 06:23:14;;;;;;;35.30;18.60;;;;;;;1.59;87.83;99950.52;177588;1255;46114;-82
2023/01/20 06:27:18;;;;;;;31.70;19.30;;;;;;;1.61;88.29;99952.86;176887;1253;58281;-81
2023/01/20 06:31:21;;;;;;;21.50;16.90;;;;;;;1.60;88.13;99955.20;176606;1257;46261;-81
2023/01/20 06:35:24;;;;;;;30.30;18.20;;;;;;;1.61;88.49;99953.38;176958;1254;46178;-82
2023/01/20 06:39:27;;;;;;;21.40;15.10;;;;;;;1.71;88.64;99957.59;177538;1254;46166;-81
2023/01/20 06:43:32;;;;;;;31.10;18.10;;;;;;;1.79;87.95;99957.73;176987;1254;46182;-81
2023/01/20 06:47:35;;;;;;;29.60;18.60;;;;;;;1.83;87.72;99954.54;176990;1254;59227;-82
2023/01/20 06:51:38;;;;;;;26.90;18.90;;;;;;;1.90;88.04;99949.66;177199;1253;46027;-81
2023/01/20 06:55:41;;;;;;;27.80;18.20;;;;;;;1.94;87.90;99943.33;177930;1253;46185;-81
2023/01/20 06:59:44;;;;;;;31.00;18.30;;;;;;;1.98;87.84;99941.03;176843;1251;46741;-81
2023/01/20 07:09:11;;;;;;;34.60;24.20;;;;;;;2.12;87.70;99948.34;177246;1263;73823;-59
2023/01/20 07:13:14;;;;;;;46.90;26.90;;;;;;;2.18;87.07;99959.11;179850;1263;45994;-58
2023/01/20 07:17:17;;;;;;;33.70;22.70;;;;;;;2.20;86.50;99970.89;179989;1263;44481;-58
2023/01/20 07:21:22;;;;;;;37.00;23.80;;;;;;;2.16;85.69;99982.29;179945;1263;43682;-58
2023/01/20 07:25:28;;;;;;;38.20;24.00;;;;;;;2.00;85.97;99994.27;179589;1265;46005;-57
2023/01/20 07:29:31;;;;;;;50.70;26.00;;;;;;;1.83;86.44;99999.34;181201;1264;59131;-58
2023/01/20 07:33:34;;;;;;;38.50;20.90;;;;;;;1.81;87.34;100005.05;181161;1265;43349;-59
2023/01/20 07:37:37;;;;;;;42.20;26.10;;;;;;;1.72;87.84;100017.70;181160;1265;42966;-60
2023/01/20 07:41:42;;;;;;;45.10;30.10;;;;;;;1.54;89.40;100030.46;181148;1265;43883;-58
2023/01/20 07:45:45;;;;;;;39.00;24.10;;;;;;;1.53;90.22;100036.13;181142;1265;43031;-60
2023/01/20 07:49:48;;;;;;;31.60;22.70;;;;;;;1.72;90.70;100042.17;181151;1265;57154;-60
2023/01/20 07:53:51;;;;;;;45.60;26.30;;;;;;;1.93;90.15;100041.35;181165;1265;43009;-60
2023/01/20 07:57:55;;;;;;;39.80;22.90;;;;;;;2.04;88.97;100044.64;181071;1266;43749;-61
2023/01/20 08:01:57;;;;;;;34.40;20.30;;;;;;;2.06;88.98;100042.96;180901;1266;43170;-61
2023/01/20 08:11:20;;;;;;;;;;;;;;;2.00;89.90;100047.80;180835;1272;57148;-61
2023/01/20 08:15:23;;;;;;;39.60;24.10;;;;;;;2.12;89.70;100059.63;180074;1273;43217;-60
2023/01/20 08:19:28;;;;;;;40.30;22.40;;;;;;;2.00;89.63;100070.89;177416;1291;43750;-61
2023/01/20 08:23:32;;;;;;;32.00;21.60;;;;;;;1.74;92.34;100085.63;176369;1301;43895;-61
2023/01/20 08:27:35;;;;;;;56.80;18.70;;;;;;;1.69;92.54;100097.04;176292;1301;43416;-60
2023/01/20 08:31:38;;;;;;;72.60;39.90;;;;;;;1.68;93.35;100103.75;176242;1301;58086;-65
2023/01/20 08:35:41;;;;;;;69.10;39.80;;;;;;;1.79;93.84;100108.98;176221;1301;43823;-60
2023/01/20 08:39:45;;;;;;;67.00;40.90;;;;;;;1.73;94.76;100116.09;176312;1300;43401;-58
2023/01/20 08:43:48;;;;;;;69.70;39.40;;;;;;;1.69;95.37;100117.86;176288;1300;43806;-59
2023/01/20 08:47:51;;;;;;;54.30;38.20;;;;;;;1.72;95.48;100119.45;176250;1300;43995;-61
2023/01/20 08:51:55;;;;;;;75.10;53.60;;;;;;;1.94;95.98;100107.59;174945;1309;59181;-61
2023/01/20 08:55:59;;;;;;;73.30;40.60;;;;;;;2.24;94.49;100097.14;174980;1309;43207;-62
2023/01/20 09:00:04;;;;;;;66.10;41.40;;;;;;;2.38;90.78;100105.05;174853;1309;43022;-61
2023/01/20 09:04:08;;;;;;;50.50;34.90;;;;;;;2.45;90.18;100108.73;174528;1310;43117;-60
2023/01/20 09:08:11;;;;;;;34.10;25.10;;;;;;;2.52;90.39;100117.82;174585;1310;43020;-60
2023/01/20 09:12:14;;;;;;;;;;;;;;;2.57;89.63;100128.09;175101;1309;58308;-61
2023/01/20 09:16:18;;;;;;;56.20;29.30;;;;;;;2.63;90.18;100127.79;173468;1317;44124;-62
2023/01/20 09:20:21;;;;;;;53.00;32.00;;;;;;;2.74;90.09;100118.95;172667;1319;43199;-62
2023/01/20 09:24:24;;;;;;;40.40;27.10;;;;;;;2.83;88.88;100115.02;172095;1328;43220;-61
2023/01/20 09:28:36;;;;;;;47.40;32.10;;;;;;;2.81;88.75;100117.05;172116;1329;43053;-64
2023/01/20 09:32:39;;;;;;;40.40;27.30;;;;;;;2.82;89.04;100118.56;171978;1329;58790;-62
2023/01/20 09:36:42;;;;;;;37.70;27.30;;;;;;;2.85;88.76;100118.27;172110;1329;43164;-61
2023/01/20 09:45:51;;;;;;;100.00;45.40;;;;;;;2.94;88.49;100128.64;172198;1329;43245;-64
2023/01/20 09:54:40;;;;;;;54.40;29.40;;;;;;;3.06;88.96;100141.52;172134;1329;59083;-62
2023/01/20 09:59:08;;;;;;;41.10;26.70;;;;;;;3.28;89.37;100144.20;171817;1331;43408;-62
2023/01/20 10:03:19;;;;;;;50.20;31.10;;;;;;;3.55;88.58;100145.21;171716;1333;43101;-61
2023/01/20 10:07:55;;;;;;;47.30;27.90;;;;;;;3.69;85.89;100145.14;171436;1338;43514;-60
2023/01/20 10:12:20;;;;;;;41.00;24.90;;;;;;;3.71;85.89;100148.20;171496;1338;43396;-62
2023/01/20 10:16:44;;;;;;;48.00;32.70;;;;;;;3.78;85.94;100149.59;171394;1340;57788;-64
2023/01/20 10:20:59;;;;;;;;;;;;;;;3.83;85.10;100146.14;171413;1339;43202;-61
2023/01/20 10:25:09;;;;;;;36.10;20.10;;;;;;;3.89;84.95;100147.40;171516;1339;42843;-60
2023/01/20 10:29:37;;;;;;;;;;;;;;;3.99;84.32;100143.00;170855;1344;43165;-63
2023/01/20 10:33:42;;;;;;;;;;;;;;;4.04;83.36;100142.88;170744;1348;43697;-62
2023/01/20 10:37:57;;;;;;;;;;;;;;;4.00;82.62;100141.52;170378;1347;57815;-62
2023/01/20 10:42:08;;;;;;;;;;;;;;;3.95;83.73;100143.23;170473;1348;43550;-63
2023/01/20 10:46:42;;;;;;;;;;;;;;;3.92;83.45;100143.38;170513;1344;43617;-60
2023/01/20 10:50:52;;;;;;;;;;;;;;;3.97;82.87;100151.15;171269;1345;43524;-62
2023/01/20 10:55:20;;;;;;;38.50;27.50;;;;;;;4.05;82.75;100157.04;171185;1342;42996;-61
2023/01/20 10:59:36;;;;;;;;;;;;;;;4.04;82.63;100162.52;170725;1345;58365;-64
2023/01/20 11:03:40;;;;;;;;;;;;;;;4.06;82.30;100170.33;170549;1348;42939;-65
2023/01/20 11:07:44;;;;;;;;;;;;;;;4.09;82.98;100175.79;170417;1348;42899;-61
2023/01/20 11:11:47;;;;;;;35.50;20.90;;;;;;;4.17;83.56;100178.51;170449;1347;43020;-61
2023/01/20 11:15:53;;;;;;;;;;;;;;;4.19;83.00;100177.27;170492;1348;43244;-60
2023/01/20 11:20:24;;;;;;;33.80;24.80;;;;;;;4.18;81.72;100176.83;170394;1348;60371;-61
2023/01/20 11:24:42;;;;;;;28.60;16.90;;;;;;;4.11;80.48;100180.04;170285;1347;43146;-61
2023/01/20 11:28:48;;;;;;;;;;;;;;;4.02;80.45;100186.13;170338;1348;43674;-61
2023/01/20 11:51:25;;;;;;;48.90;29.50;;;;;;;3.84;83.42;100193.12;175796;1273;337955;-65
2023/01/20 11:55:29;;;;;;;57.60;33.50;;;;;;;3.72;82.45;100189.89;179938;1263;44714;-61
2023/01/20 11:59:48;;;;;;;55.10;32.50;;;;;;;3.62;83.16;100187.66;180014;1265;45927;-64
2023/01/20 12:04:21;;;;;;;44.60;31.20;;;;;;;3.46;83.52;100186.54;179794;1264;61329;-64
2023/01/20 12:08:30;;;;;;;60.00;31.60;;;;;;;3.39;84.33;100190.77;177978;1259;80279;-81
2023/01/20 12:34:15;;;;;;;74.00;38.90;;;;;;;3.60;85.93;100213.55;179904;1264;46015;-61
2023/01/20 12:38:18;;;;;;;45.80;28.80;;;;;;;3.62;85.98;100212.71;179890;1264;45904;-62
2023/01/20 12:42:37;;;;;;;47.60;31.00;;;;;;;3.64;85.15;100213.48;179738;1264;43550;-62
2023/01/20 12:47:11;;;;;;;59.70;33.50;;;;;;;3.61;85.19;100212.08;180014;1263;43730;-60
2023/01/20 12:51:59;;;;;;;48.80;31.80;;;;;;;3.57;86.08;100216.33;179894;1263;58009;-60
2023/01/20 12:56:17;;;;;;;44.30;31.00;;;;;;;3.54;86.14;100223.10;179906;1265;43679;-60
2023/01/20 13:01:06;;;;;;;46.80;32.40;;;;;;;3.57;85.90;100220.70;179926;1265;44575;-59
2023/01/20 13:05:39;;;;;;;64.10;38.30;;;;;;;3.59;87.01;100223.77;179964;1264;43748;-61
2023/01/20 13:10:29;;;;;;;51.70;31.30;;;;;;;3.63;86.97;100225.34;179877;1265;43538;-59
2023/01/20 13:14:40;;;;;;;54.00;32.80;;;;;;;3.60;87.27;100228.77;180006;1265;58461;-62
2023/01/20 13:19:33;;;;;;;51.10;29.30;;;;;;;3.51;88.65;100235.05;179589;1265;43696;-60
2023/01/20 13:23:36;;;;;;;39.80;27.40;;;;;;;3.33;89.51;100229.65;179721;1265;44729;-63
2023/01/20 13:27:40;;;;;;;52.90;29.70;;;;;;;3.29;90.62;100233.71;179853;1263;43541;-60
2023/01/20 13:31:45;;;;;;;41.30;26.20;;;;;;;3.25;91.21;100232.52;179599;1265;44606;-63
2023/01/20 13:35:49;;;;;;;40.50;25.50;;;;;;;3.19;91.42;100234.75;179810;1265;57565;-60
2023/01/20 13:39:53;;;;;;;35.40;25.10;;;;;;;3.17;91.58;100234.67;179887;1264;44754;-61
2023/01/20 13:44:35;;;;;;;31.90;23.10;;;;;;;3.17;91.71;100238.75;179948;1265;43708;-60
2023/01/20 13:49:27;;;;;;;28.70;21.30;;;;;;;3.21;91.70;100248.50;179934;1265;43527;-60
2023/01/20 13:53:30;;;;;;;34.90;24.90;;;;;;;3.22;91.10;100253.89;179849;1265;44789;-63
2023/01/20 13:57:35;;;;;;;32.80;21.90;;;;;;;3.32;90.88;100268.59;179828;1265;58440;-58
2023/01/20 14:01:38;;;;;;;33.00;23.40;;;;;;;3.38;90.18;100274.11;179961;1265;44023;-60
2023/01/20 14:05:57;;;;;;;38.00;26.10;;;;;;;3.44;89.68;100279.43;179904;1265;43502;-59
2023/01/20 14:10:00;;;;;;;38.10;23.40;;;;;;;3.51;89.57;100281.36;179927;1265;46043;-58
2023/01/20 14:14:06;;;;;;;36.70;22.50;;;;;;;3.53;89.38;100288.05;179942;1265;45997;-56
2023/01/20 14:18:15;;;;;;;31.40;21.60;;;;;;;3.54;89.35;100288.69;179978;1265;57079;-62
2023/01/20 14:22:30;;;;;;;34.30;22.50;;;;;;;3.56;89.30;100291.05;180117;1262;46040;-58
2023/01/20 14:26:34;;;;;;;39.70;26.10;;;;;;;3.58;89.25;100293.44;179815;1261;44576;-57
2023/01/20 14:31:09;;;;;;;41.10;27.00;;;;;;;3.57;89.40;100299.61;180017;1264;45347;-59
2023/01/20 14:35:16;;;;;;;41.40;26.90;;;;;;;3.54;89.03;100300.08;180255;1262;43738;-58
2023/01/20 14:39:26;;;;;;;39.30;23.80;;;;;;;3.48;89.44;100303.39;179864;1257;80921;-83
2023/01/20 14:43:31;;;;;;;40.60;28.10;;;;;;;3.41;90.31;100309.52;179653;1259;45201;-82
2023/01/20 14:47:36;;;;;;;37.40;26.10;;;;;;;3.38;90.57;100319.71;179130;1263;46268;-82
2023/01/20 14:51:39;;;;;;;37.90;24.00;;;;;;;3.36;90.66;100326.30;179518;1260;46044;-83
2023/01/20 14:56:06;;;;;;;39.40;28.60;;;;;;;3.32;91.03;100328.05;179214;1260;45935;-83
2023/01/20 15:00:18;;;;;;;44.90;31.40;;;;;;;3.26;91.14;100336.08;178214;1259;59495;-85
2023/01/20 15:04:22;;;;;;;46.20;27.70;;;;;;;3.24;91.55;100347.88;178742;1261;45984;-83
2023/01/20 15:08:31;;;;;;;39.80;27.60;;;;;;;3.29;91.73;100358.34;178287;1260;46108;-83
2023/01/20 15:12:41;;;;;;;40.30;26.60;;;;;;;3.35;91.96;100367.17;178680;1261;45986;-82
2023/01/20 15:16:48;;;;;;;34.10;26.40;;;;;;;3.35;91.97;100374.02;179251;1263;45882;-82
2023/01/20 15:20:53;;;;;;;39.50;28.10;;;;;;;3.33;92.29;100371.85;179322;1262;58634;-82
2023/01/20 15:25:19;;;;;;;38.30;26.60;;;;;;;3.24;92.87;100371.55;178084;1261;46214;-82
2023/01/20 15:29:33;;;;;;;43.80;28.30;;;;;;;3.19;93.25;100368.67;178907;1260;45302;-83
2023/01/20 15:33:36;;;;;;;38.70;27.10;;;;;;;3.17;93.85;100369.98;178604;1260;47939;-82
2023/01/20 15:37:43;;;;;;;43.90;26.80;;;;;;;3.14;93.88;100374.88;178199;1260;45939;-82
2023/01/20 15:41:48;;;;;;;58.20;31.80;;;;;;;3.05;93.98;100380.55;178855;1261;59623;-83
2023/01/20 15:45:52;;;;;;;47.70;31.30;;;;;;;3.00;94.29;100383.23;178383;1261;46038;-84
2023/01/20 15:49:55;;;;;;;48.10;31.10;;;;;;;2.97;94.54;100390.04;178089;1260;44789;-84
2023/01/20 15:53:58;;;;;;;48.60;30.30;;;;;;;2.97;94.94;100396.35;177707;1261;46109;-83
2023/01/20 15:58:19;;;;;;;43.90;28.70;;;;;;;2.94;95.51;100398.59;177327;1260;45993;-84
2023/01/20 16:02:22;;;;;;;54.50;34.20;;;;;;;2.88;95.78;100401.87;177272;1259;59300;-84
2023/01/20 16:06:29;;;;;;;52.80;32.50;;;;;;;2.83;96.11;100402.11;177216;1260;45981;-84
2023/01/20 16:10:32;;;;;;;61.90;36.30;;;;;;;2.81;96.42;100407.63;177520;1260;46058;-84
2023/01/20 16:14:35;;;;;;;58.70;40.10;;;;;;;2.76;96.59;100401.38;177317;1260;46208;-80
2023/01/20 16:18:39;;;;;;;61.60;34.20;;;;;;;2.68;96.63;100409.30;177124;1263;46080;-83
2023/01/20 16:22:42;;;;;;;62.10;39.50;;;;;;;2.58;97.00;100413.43;177127;1261;58728;-85
2023/01/20 16:26:46;;;;;;;62.40;37.40;;;;;;;2.51;97.77;100421.81;176706;1261;46121;-84
2023/01/20 16:30:52;;;;;;;63.40;37.30;;;;;;;2.48;98.24;100428.05;176582;1261;46125;-84
2023/01/20 16:34:55;;;;;;;64.90;45.20;;;;;;;2.48;98.62;100436.64;177377;1260;46153;-84
2023/01/20 16:39:00;;;;;;;61.80;35.80;;;;;;;2.41;98.58;100442.02;176492;1261;46053;-84
2023/01/20 16:43:03;;;;;;;74.60;42.80;;;;;;;2.40;99.26;100445.73;176806;1260;58291;-82
2023/01/20 16:47:07;;;;;;;83.80;43.50;;;;;;;2.38;99.69;100448.48;177241;1260;46232;-84
2023/01/20 16:51:16;;;;;;;67.90;39.10;;;;;;;2.34;99.90;100453.35;179491;1260;44012;-82
2023/01/20 16:55:20;;;;;;;74.90;47.30;;;;;;;2.35;99.95;100452.64;179018;1260;44948;-84
2023/01/20 16:59:24;;;;;;;74.50;43.10;;;;;;;2.31;100.00;100461.88;177193;1259;46018;-84
2023/01/20 17:03:27;;;;;;;76.60;42.90;;;;;;;2.29;100.00;100468.28;177368;1260;57917;-84
2023/01/20 17:07:31;;;;;;;74.50;46.20;;;;;;;2.29;100.00;100466.17;177267;1260;46137;-84
2023/01/20 17:11:36;;;;;;;77.10;47.60;;;;;;;2.26;100.00;100468.06;177494;1260;46053;-82
2023/01/20 17:15:41;;;;;;;80.10;48.00;;;;;;;2.21;100.00;100480.16;177685;1259;46105;-83
2023/01/20 17:19:44;;;;;;;85.60;47.10;;;;;;;2.19;100.00;100495.33;178471;1259;45855;-84
2023/01/20 17:23:56;;;;;;;84.20;47.00;;;;;;;2.17;100.00;100499.97;178666;1259;59554;-84
2023/01/20 17:27:59;;;;;;;80.50;48.00;;;;;;;2.15;100.00;100503.88;177453;1261;46125;-84
2023/01/20 17:32:02;;;;;;;74.30;45.60;;;;;;;2.09;100.00;100505.02;178022;1259;45989;-83
2023/01/20 17:36:06;;;;;;;80.30;48.00;;;;;;;2.09;100.00;100510.63;179713;1261;46176;-83
2023/01/20 17:40:10;;;;;;;70.40;42.80;;;;;;;2.09;100.00;100517.80;177565;1260;45981;-83
2023/01/20 17:44:13;;;;;;;74.60;43.10;;;;;;;2.09;100.00;100516.91;177082;1259;58229;-83
2023/01/20 17:48:16;;;;;;;84.00;47.40;;;;;;;2.10;100.00;100521.77;177350;1260;46006;-83
2023/01/20 17:52:21;;;;;;;88.80;52.40;;;;;;;2.09;100.00;100524.25;177232;1261;46143;-84
2023/01/20 17:56:25;;;;;;;85.80;48.30;;;;;;;2.11;100.00;100525.40;177532;1259;46101;-83
2023/01/20 18:00:28;;;;;;;92.50;52.30;;;;;;;2.13;100.00;100529.53;177319;1261;45995;-83
2023/01/20 18:04:31;;;;;;;86.50;52.10;;;;;;;2.10;100.00;100538.21;176919;1263;59553;-84
2023/01/20 18:08:35;;;;;;;82.10;48.30;;;;;;;2.06;100.00;100538.03;177157;1260;46099;-83
2023/01/20 18:12:38;;;;;;;79.10;45.10;;;;;;;2.05;100.00;100538.77;178079;1259;46056;-83
2023/01/20 18:16:41;;;;;;;93.40;51.10;;;;;;;2.06;100.00;100540.52;178432;1259;45999;-84
2023/01/20 18:20:44;;;;;;;84.10;49.70;;;;;;;2.06;100.00;100541.55;177953;1260;45884;-84
2023/01/20 18:24:47;;;;;;;90.50;50.80;;;;;;;2.06;100.00;100542.95;179059;1259;59602;-84
2023/01/20 18:29:02;;;;;;;87.50;48.80;;;;;;;2.06;100.00;100553.79;178967;1259;44280;-84
2023/01/20 18:33:05;;;;;;;88.70;47.30;;;;;;;2.07;100.00;100549.73;177590;1260;45999;-82
2023/01/20 18:37:08;;;;;;;89.60;51.20;;;;;;;2.03;100.00;100552.16;178215;1259;46381;-84
2023/01/20 18:41:13;;;;;;;88.00;49.60;;;;;;;2.03;100.00;100551.30;178750;1257;44087;-84
2023/01/20 18:45:16;;;;;;;83.70;51.00;;;;;;;2.03;100.00;100549.55;178367;1257;58172;-82
2023/01/20 18:49:20;;;;;;;88.20;52.80;;;;;;;2.02;100.00;100552.89;178038;1258;46420;-83
2023/01/20 18:53:23;;;;;;;82.10;47.90;;;;;;;2.03;100.00;100556.20;178148;1259;46192;-84
2023/01/20 18:57:26;;;;;;;87.00;50.30;;;;;;;2.03;100.00;100559.51;178738;1257;44414;-84
2023/01/20 19:01:32;;;;;;;88.50;48.90;;;;;;;2.04;100.00;100559.62;178683;1262;45970;-85
2023/01/20 19:05:36;;;;;;;73.10;46.10;;;;;;;2.04;100.00;100567.86;177867;1259;61222;-84
2023/01/20 19:09:40;;;;;;;79.90;44.90;;;;;;;2.06;100.00;100571.12;178103;1260;46092;-85
2023/01/20 19:13:45;;;;;;;71.60;46.00;;;;;;;2.07;100.00;100572.11;178403;1258;46118;-85
2023/01/20 19:17:49;;;;;;;86.90;47.80;;;;;;;2.11;100.00;100568.98;177955;1259;46138;-84
2023/01/20 19:21:53;;;;;;;70.40;42.90;;;;;;;2.15;100.00;100575.95;178277;1259;45999;-84
2023/01/20 19:26:04;;;;;;;90.30;47.40;;;;;;;2.14;100.00;100578.81;178025;1258;59214;-84
2023/01/20 19:30:09;;;;;;;83.50;44.60;;;;;;;2.13;99.98;100584.45;178020;1257;46204;-83
2023/01/20 19:34:12;;;;;;;79.50;44.50;;;;;;;2.11;99.95;100588.37;178114;1259;46213;-84
2023/01/20 19:38:15;;;;;;;70.70;42.30;;;;;;;2.16;100.00;100595.55;178327;1260;45999;-83
2023/01/20 19:42:18;;;;;;;68.10;41.80;;;;;;;2.18;99.66;100598.96;177959;1259;46188;-83
2023/01/20 19:46:23;;;;;;;55.40;35.00;;;;;;;2.17;99.06;100597.42;177477;1259;58318;-83
2023/01/20 19:50:26;;;;;;;61.90;35.80;;;;;;;2.16;98.82;100605.17;178057;1259;45613;-82
2023/01/20 19:54:30;;;;;;;68.80;39.60;;;;;;;2.14;98.83;100607.50;178150;1260;46092;-83
2023/01/20 19:58:34;;;;;;;58.80;37.10;;;;;;;2.10;98.95;100612.40;178096;1259;46005;-84
2023/01/20 20:02:39;;;;;;;62.10;39.60;;;;;;;2.07;98.57;100613.73;178404;1259;46085;-84
2023/01/20 20:06:45;;;;;;;77.60;45.10;;;;;;;2.06;98.81;100613.59;178770;1259;59548;-84